Timeline UpdatesTrip UpdatesNews PostsPvt Posts♥♥Travel TipsAdmin PostsConv PostsFollowed PostsChat RequestsBlog PostsPNR Posts

Disclaimer
Search
 
 
Thu Dec 18, 2014 06:23:44 ISTHomeTrainsΣChainsAtlasPNRForumGalleryNewsFAQTripsMembersLoginFeedback
No Recent News for this Train
Other Trains in the News **new
Latest...
Will stop at Magra on 23/9/14 #1220549
Sun Sep 21, 2014 (06:10PM)
⇐ Return Journey: Train# 53044

53043/Howrah - Rajgir Fast Passenger (UnReserved)

Time-Table HAS CHANGED.
Sep 21 2014 (6:10PM)
Change Departure Station:
Change Arrival Station:
Post a Train Travel TipPost a Train Travel Tip **new
Post a Comment/Question/Picture/VideoPost a Comment/Question/Picture/Video
Pantry/Catering
✕ NO Pantry Car
✕ NO Catering
Loco/Rake Reversals
BKP/Bakhtiyarpur Junction (5);
RSA - Rake Sharing
Rake/Coach Composition
Loco
HWH WDM 3A/3D
News    PNR    Forum    Time-Table    Availability    Fare Chart    Map    Arr/Dep History    Trips    Gallery    ΣChains    X/O    Timeline    
Travel Time: 23h 45m    80 halts    Distance: 656 km    Avg Speed: 27 km/hr
Type: Passenger
Zone: ER/Eastern
Departs @ 11:10 (Avg 3m late)
Platform# 10
SMTWTFS
Kolkata Howrah Junction/HWH 
Arrives @ 10:55 +1 night (Avg 1h 25m late)
Platform# ???
SMTWTFS
Rajgir/RGD 

80 halts. 160 intermediate Stations between Kolkata Howrah Junction and Rajgir

Show ALL intermediate Stations  Show Old Time-Table

#TrkCodeStation NameX/OArrivesAvgDepartsAvgHaltPFDay#KmSpeedElevZoneAddress
1/==/HWHKolkata Howrah Junction (23)»  -11:10+31010.04510mERHowrah 711101, West Bengal
2/==/SRPSerampore (4)X  11:36+3111:39+303m--119.53811mERdist - hooghly, West Bengal
3/==/SHESeoraphuli Junction (6)  11:43+3011:45+312m--122.17113mERBaidyabati, West Bengal
4/==/CGRChandan Nagar (3)X  11:54+3511:57+373m--132.76016mERDist -HOOGHLY - 712136, West Bengal
5/==/CNSChuchura (3)X  12:00-12:01-1m--135.72515mERDist - HOOGHLY - 712102, West Bengal
6/==/BDCBandel Junction (7)X  12:10+3612:14+364m--139.57514mERdist - HOOGHLY, West Bengal
7/==/PDAPundooah (3)  12:31+4912:32+491m--160.77018mERPandua, West Bengal
8/==/MYMMemari (4)  12:49 12:50+5312:50 12:51+541m--181.76025mERMemari, West Bengal
9/==/BWNBarddhaman Junction (8)X  13:16+2413:21+275m--1106.74634mERDist - Barddhaman, West Bengal
10/==%KANKhana Junction (5)X  13:37 13:38+1:0413:38 13:39+1:041m11119.85942mERDist - Bardhaman, West Bengal
11%==%JTLJhapater Dhal (4)  13:45+1:0513:46+1:051m--1125.73836mERDist - Bardhaman, West Bengal
12%==%BPSBanpas (3)  13:52+1:2613:53+1:261m--1129.53746mERDist - Bardhaman, West Bengal
13%==%NRXNoadar Dhal (2)  13:59+1:2114:00+1:231m--1133.25546mERdist - bardhaman, West Bengal
14%==%GKHGuskara (2)  14:07+1:0614:12+1:035m21139.67441mERDist - Bardhaman, West Bengal
15%==%PCQPichkurirdhal (3)X  14:17+1:1014:18+1:121m--1145.85738mERDist - Bardhaman, West Bengal
16%==%BDHBhedia (2)X  14:23+1:1614:24+1:181m--1150.55341mERDist - Bardhaman, West Bengal
17%==%BHPBolpur Shantiniketan (3)  14:33+4914:36+493m--1158.54259mERDist - Birbhum, West Bengal
18%==%PNEPrantik (3)  14:42+4814:43+491m--1162.74748mERDist - Birbhum, West Bengal
19%==%KPLEKopai (2)X  14:52+5114:53+531m--1169.86148mERDist - Birbhum, West Bengal
20%==%AMPAhmadpur Junction (3)X  15:01+1:0115:02+1:021m--1178.05646mERDist - Birbhum, West Bengal
21%==%BSLEBataspur (2)  15:08+5815:09+1:061m--1183.65154mERDist - Birbhum, West Bengal
22%==%SNTSainthia Junction (4)X  15:18+5615:20+1:002m31191.28758mERDist - Birbhum, West Bengal
23%==%GHLEGadadharpur (3)X  15:25+1:1215:26+1:131m11198.57152mERDist - Birbhum, West Bengal
24%==%MLVMallarpur (3)  15:33+1:1615:34+1:161m--1206.85246mERDist - Birbhum, West Bengal
25%==%TPFTarapith Road (2)X  15:40+1:1615:41+1:161m--1212.02345mERDist - Birbhum, West Bengal
26%==%RPHRampurhat (3)X  16:01 16:00+5416:08+587 8m--1219.25041mERDIST - Birbhum, West Bengal
27%==%NHTNalhati Junction (4)X  16:25+1:2316:27+1:252m31233.38648mERDist - Birbhum, West Bengal
28%==%CTRChatra (3)  16:33+1:2816:34+1:291m--1241.96542mERDist - Birbhum, West Bengal
29%==%MRRMurarai (3)  16:41+1:3416:42+1:361m--1249.55036mERDist - Birbhum, West Bengal
30%==%BSBRBanshlai Bridge (2)  17:05 16:48+1:4017:06 16:49+1:401m--1254.56735mERDist - Birbhum, West Bengal
31%==%RJGRajgram (3)XO  17:46 16:55+1:3517:48 16:56+1:362 1m31261.2532mERDist - Birbhum, West Bengal
32%==%NGFNagarnabi (3)  17:54+5117:56+552m31266.44630mERState Highway 5, Jharkhand
33%==%PKRPakur (2)  18:03+4818:07+504m11271.85137mERDist:- Pakur, Jharkhand
34%==%TBBTilbhita (3)  18:12+1:0418:13+1:051m--1276.04531mERTilbhita, Jharkhand
35%==%KLPKotalpukur (3)X  18:23+5918:24+1:011m--1283.62240mERKotalpukur, Jharkhand
36%==%GMANGumani (3)  18:42+5418:43+541m--1290.24431mERGumani, Jharkhand
37|==|BHWBarharwa Junction (3)X  18:53+5918:58+585m11297.65336mERBarharwa, Jharkhand
38|==|BKLEBakudi (3)  19:07+1:0019:08+1:001m--1305.56665mERBakudi, Jharkhand
39|==|TPHTinpahar Junction (3)  19:17 19:16+1:1119:19 19:18+1:172m11314.35845mERBamangawan, Jharkhand
40|==|KXEKalian Chak  19:24 19:23+1:2219:25 19:24+1:301m--1319.15845mERKalian Chak, Jharkhand
41|==!TLJTaljhariX  19:30 19:29+1:3419:31 19:30+1:371m--1323.91538mERTaljhari, Jharkhand
42!==!MJPMaharajpur (2)X  20:25+1:0020:32+1:087m--1338.14134mERMoharajpur, Jharkhand
43!==!SLJSakrigali Junction (3)X  20:40 20:41+1:1020:46+1:246 5m--1344.32945mERSakrigali, Jharkhand
44!==!SBGSahibganj Junction (3)X  21:02+1:0221:12+1:1310m21352.03538mERSahibganj, Jharkhand
45!==!MZCMirza Cheuki (3)  21:38+1:3221:40+1:372m11367.13638mERBihar, Bihar
46!==!PPTPirpainti (2)X  21:54+1:3422:02+1:348m--1375.63653mERBhagalpur, Bihar
47!==!SVRPShivanarayanpur (2)X  22:17+1:3022:18+1:321m--1384.54047mERShivanarayanpur, Bihar
48!==!CLGKahalgaon (2)O  22:36 22:35+1:3022:57 22:36+1:4321 1m21396.0944mERBhagalpur, Bihar
49!==!EKCEkchari (1)  23:04+1:2923:05+1:301m11400.36937mERNational Highway 80, Bihar
50!==!GGAGhoga (2)  23:10+1:3423:15+1:385m--1406.05842mERGhoga, Bihar
51!==!LMMLailakh Mamalkha (2)  23:21+1:4023:22+1:411m--1411.84036mERLailakh Mamlkha, Bihar
52!==!SBOSabaur (3)  23:32+1:4023:34+1:452m--1418.54542mERSabour, Bihar
53!==|BGPBhagalpur Junction (6)X  23:44+1:1023:59+1:0815m--1426.02649mERBhagalpur, Bihar
54|==|NATNathnagar (2)  00:10+1:4600:11+1:471m--2430.79948mERBhagalpur, Bihar
55|==|AKNAkbarnagar (3)  00:19+1:5100:21+1:512m--2440.94139mERTilakpur, Bihar
56|==|MVVMaheshi (2) new halt!!  00:26-00:27-1m--2444.36637mERTilakpur, Bihar
57|==|SGGSultanGanj (3)  00:33+1:4900:37+1:554m--2451.06042mERSultanganj, Bihar
58|==|BUPBariarpur (3)  00:55+2:0000:57+2:082m--2468.91642mERMunger, Bihar
59|-=|JMPJamalpur Junction (4)X  01:38+1:4901:48+1:5410m--2480.04359mERDist: Munger 06344-243101, Bihar
60|==|DRTPDasharathpur (2)  01:57+2:1701:59+2:172m--2486.46548mERDharhara, Bihar
61|==|DRHDharhara (2)  02:04+2:2002:06+2:192m--2491.96055mERDharhara, Bihar
62|==|MSDNMasudan (2)  02:12+2:2102:13+2:211m--2497.84845mERMasudan, Bihar
63|==|AHAAbhaipur (3)  02:18+2:2202:19+2:291m--2501.96252mERAbhaipur, Bihar
64!==|KJHKajra (2)X  02:23 02:26+2:3102:25 02:28+2:332m--2509.12950mERLakhisarai District, Bihar
65|==|DNREDhanauri  02:48+2:2802:50+2:362m--2518.81848mERNational Highway 80, Bihar
66|=-|KIULKiul Junction (5)XO  03:10+2:5303:38+2:4828m--2524.91053mECRDist. Lakhisarai, Bihar
67/==/LKRLuckeesarai Junction (2)X  03:46+2:4203:48+2:412m--2526.25652mECRLakhisarai, Bihar
68/==/MKBMankathaX  03:54+2:3803:55+2:411m--2531.83847mECRNational Highway 80, Bihar
69/=-/BRYABarhiya (3)XO  04:10+2:4204:12+2:472m--2541.2747mECRBarahiya, Bihar
70/==/RDUMRampur Dumra (3)O  05:02+2:0905:04+2:082m--2546.81046mECRNational Highway 80, Bihar
71/==/HTZHathidah Junction (2)O  05:27+1:5005:29+1:512m22550.62050mECRMusahari, Bihar
72/==/MKAMokama Junction (4)X  05:54+1:4105:56+1:482m--2559.01248mECRPatna, Bihar
73/==/MORMor (2)  06:34+1:2406:36+1:232m--2566.32746mECRMor, Bihar
74/==/PHKPunarakh (2)  06:54+1:2006:55+1:221m--2574.54751mECRPunarakh, Bihar
75/==/BARHBarh (3)X  07:08+1:4707:10+1:552m--2584.74249mECRBarh, Bihar
76/==/ATLAthmal Gola (2)  07:23+1:3107:25+1:342m--2593.83652mECRPatna, Bihar
77/==/BKPBakhtiyarpur Junction (5)07:40+1:3208:05+2:0625m--2602.86451mECRPatna, Bihar
78|--|HRTHarnaut (3)  08:15+2:1508:16+2:231m--2613.54449mECRHarnaut, Bihar
79|--|WENAWena (2)  08:23+2:2408:24+2:331m--2618.73147mECRWena, Bihar
80|--|BEHSBihar Sharif (2)  08:51+2:1908:52+2:241m--2632.63456mECR06112-222306, Bihar
81|--|NLDNalanda (2)X  09:14+2:2409:15+2:361m--2645.2763mECRNational Highway 82, Bihar
82|--|RGDRajgir (3)•  10:55+1:25---2656.4-71mECRRajgir, Bihar
Scroll to Top
Scroll to Bottom


Go to Mobile site